createdAt,value
2023-01-25T00:00:51.399Z,56.06
2023-01-25T00:03:18.298Z,56.14
2023-01-25T00:05:45.329Z,55.97
2023-01-25T00:08:12.256Z,56.22
2023-01-25T00:10:39.352Z,56.15
2023-01-25T00:13:06.462Z,56.07
2023-01-25T00:15:33.365Z,56.15
2023-01-25T00:18:00.241Z,56.34
2023-01-25T00:20:27.145Z,56.25
2023-01-25T00:22:53.923Z,56.34
2023-01-25T00:25:20.730Z,56.37
2023-01-25T00:27:47.626Z,56.39
2023-01-25T00:30:14.807Z,56.50
2023-01-25T00:32:49.681Z,56.62
2023-01-25T00:35:16.690Z,56.41
2023-01-25T00:37:47.077Z,56.66
2023-01-25T00:40:14.135Z,56.64
2023-01-25T00:42:41.511Z,56.76
2023-01-25T00:45:10.788Z,56.68
2023-01-25T00:47:37.798Z,56.82
2023-01-25T00:50:08.893Z,56.65
2023-01-25T00:52:35.734Z,56.65
2023-01-25T00:55:03.133Z,56.70
2023-01-25T00:57:29.957Z,56.87
2023-01-25T00:59:56.808Z,56.71
2023-01-25T01:02:23.692Z,56.89
2023-01-25T01:04:50.642Z,56.92
2023-01-25T01:07:17.576Z,56.76
2023-01-25T01:09:44.562Z,57.07
2023-01-25T01:12:11.597Z,56.89
2023-01-25T01:14:38.665Z,57.12
2023-01-25T01:17:05.553Z,56.95
2023-01-25T01:19:32.600Z,57.14
2023-01-25T01:21:59.431Z,57.07
2023-01-25T01:24:26.338Z,57.12
2023-01-25T01:26:53.140Z,57.00
2023-01-25T01:29:19.955Z,57.02
2023-01-25T01:31:46.932Z,57.21
2023-01-25T01:34:17.377Z,57.16
2023-01-25T01:36:44.241Z,57.14
2023-01-25T01:39:11.364Z,57.40
2023-01-25T01:41:38.712Z,57.25
2023-01-25T01:44:06.147Z,57.54
2023-01-25T01:46:38.814Z,57.30
2023-01-25T01:49:26.777Z,57.39
2023-01-25T01:52:16.839Z,57.29
2023-01-25T01:54:57.168Z,57.36
2023-01-25T01:57:30.301Z,57.37
2023-01-25T02:00:17.921Z,57.30
2023-01-25T02:02:45.965Z,57.51
2023-01-25T02:05:20.182Z,57.47
2023-01-25T02:07:51.115Z,57.70
2023-01-25T02:10:18.843Z,57.64
2023-01-25T02:12:46.017Z,57.60
2023-01-25T02:15:13.064Z,57.61
2023-01-25T02:17:41.712Z,57.60
2023-01-25T02:20:28.833Z,57.70
2023-01-25T02:23:33.060Z,57.55
2023-01-25T02:26:04.670Z,57.71
2023-01-25T02:28:45.929Z,57.84
2023-01-25T02:31:13.056Z,57.87
2023-01-25T02:33:40.330Z,57.71
2023-01-25T02:36:07.110Z,57.69
2023-01-25T02:38:37.617Z,57.67
2023-01-25T02:41:19.003Z,57.78
2023-01-25T02:43:45.716Z,57.69
2023-01-25T02:46:23.659Z,57.84
2023-01-25T02:48:50.544Z,57.83
2023-01-25T02:51:17.430Z,57.94
2023-01-25T02:53:44.282Z,57.66
2023-01-25T02:56:11.188Z,57.67
2023-01-25T02:58:38.053Z,57.78
2023-01-25T03:01:05.035Z,57.98
2023-01-25T03:03:31.815Z,57.79
2023-01-25T03:05:58.680Z,57.76
2023-01-25T03:08:25.631Z,57.61
2023-01-25T03:10:56.757Z,57.91
2023-01-25T03:13:23.445Z,57.86
2023-01-25T03:15:50.418Z,57.86
2023-01-25T03:18:17.224Z,57.88
2023-01-25T03:20:44.095Z,57.92
2023-01-25T03:23:10.898Z,57.94
2023-01-25T03:25:37.710Z,57.79
2023-01-25T03:28:04.548Z,57.72
2023-01-25T03:30:31.352Z,57.85
2023-01-25T03:32:58.145Z,58.01
2023-01-25T03:35:25.050Z,57.80
2023-01-25T03:37:51.913Z,57.56
2023-01-25T03:40:18.803Z,57.69
2023-01-25T03:42:45.608Z,57.77
2023-01-25T03:45:14.620Z,57.63
2023-01-25T03:47:42.494Z,57.74
2023-01-25T03:50:09.850Z,57.95
2023-01-25T03:52:40.944Z,57.95
2023-01-25T03:55:09.056Z,57.84
2023-01-25T03:57:36.070Z,57.78
2023-01-25T04:00:02.971Z,57.49
2023-01-25T04:02:29.815Z,57.68
2023-01-25T04:04:56.729Z,57.60
2023-01-25T04:07:23.713Z,57.42
2023-01-25T04:09:51.595Z,57.86
2023-01-25T04:12:18.406Z,57.66
2023-01-25T04:14:45.249Z,57.69
2023-01-25T04:17:12.118Z,57.55
2023-01-25T04:19:38.991Z,57.69
2023-01-25T04:22:05.811Z,57.58
2023-01-25T04:24:32.657Z,57.61
2023-01-25T04:26:59.515Z,57.58
2023-01-25T04:29:40.034Z,57.42
2023-01-25T04:32:08.368Z,57.51
2023-01-25T04:34:35.252Z,57.53
2023-01-25T04:37:02.257Z,57.75
2023-01-25T04:39:29.083Z,57.51
2023-01-25T04:41:55.856Z,57.47
2023-01-25T04:44:22.675Z,57.55
2023-01-25T04:46:49.783Z,57.83
2023-01-25T04:49:16.690Z,57.72
2023-01-25T04:51:43.475Z,57.50
2023-01-25T04:54:10.275Z,57.57
2023-01-25T04:56:37.178Z,57.88
2023-01-25T04:59:04.035Z,57.81
2023-01-25T05:01:33.585Z,57.67
2023-01-25T05:04:00.568Z,57.75
2023-01-25T05:06:27.443Z,57.69
2023-01-25T05:08:54.268Z,57.56
2023-01-25T05:11:21.176Z,57.58
2023-01-25T05:13:48.065Z,57.76
2023-01-25T05:16:15.022Z,57.55
2023-01-25T05:18:48.522Z,57.74
2023-01-25T05:21:34.866Z,57.71
2023-01-25T05:24:01.781Z,57.73
2023-01-25T05:26:47.742Z,57.78
2023-01-25T05:29:14.568Z,57.78
2023-01-25T05:31:41.504Z,57.63
2023-01-25T05:34:09.323Z,57.59
2023-01-25T05:36:36.210Z,57.45
2023-01-25T05:39:06.708Z,58.03
2023-01-25T05:41:33.551Z,57.88
2023-01-25T05:44:00.651Z,57.59
2023-01-25T05:46:28.854Z,57.69
2023-01-25T05:48:55.676Z,57.60
2023-01-25T05:51:22.877Z,57.30
2023-01-25T05:53:49.839Z,57.73
2023-01-25T05:56:16.877Z,57.82
2023-01-25T05:58:43.764Z,57.88
2023-01-25T06:01:10.584Z,57.93
2023-01-25T06:03:37.503Z,57.63
2023-01-25T06:06:04.475Z,57.15
2023-01-25T06:08:31.747Z,57.17
2023-01-25T06:10:59.100Z,57.15
2023-01-25T06:13:26.207Z,57.28
2023-01-25T06:15:56.899Z,57.79
2023-01-25T06:18:27.211Z,58.04
2023-01-25T06:20:57.525Z,57.99
2023-01-25T06:23:24.569Z,57.89
2023-01-25T06:25:51.666Z,58.06
2023-01-25T06:28:18.518Z,58.07
2023-01-25T06:30:45.529Z,58.23
2023-01-25T06:33:12.380Z,58.47
2023-01-25T06:35:40.647Z,58.41
2023-01-25T06:38:07.582Z,58.32
2023-01-25T06:40:34.508Z,58.81
2023-01-25T06:43:09.118Z,58.59
2023-01-25T06:45:36.549Z,58.64
2023-01-25T06:48:03.944Z,58.44
2023-01-25T06:50:30.889Z,58.00
2023-01-25T06:52:57.804Z,57.92
2023-01-25T06:55:24.706Z,57.77
2023-01-25T06:57:51.598Z,57.72
2023-01-25T07:00:19.155Z,57.65
2023-01-25T07:02:46.136Z,57.52
2023-01-25T07:05:13.083Z,57.63
2023-01-25T07:07:39.975Z,57.61
2023-01-25T07:10:07.337Z,57.37
2023-01-25T07:12:34.179Z,57.31
2023-01-25T07:15:01.137Z,57.29
2023-01-25T07:17:27.973Z,56.29
2023-01-25T07:19:55.116Z,55.95
2023-01-25T07:22:21.938Z,55.92
2023-01-25T07:24:52.410Z,55.90
2023-01-25T07:27:19.280Z,55.76
2023-01-25T07:29:46.154Z,55.69
2023-01-25T07:32:14.527Z,55.62
2023-01-25T07:34:41.609Z,56.47
2023-01-25T07:37:09.569Z,56.89
2023-01-25T07:39:36.812Z,57.26
2023-01-25T07:42:03.715Z,57.33
2023-01-25T07:44:30.596Z,57.61
2023-01-25T07:46:57.545Z,57.81
2023-01-25T07:49:24.492Z,57.58
2023-01-25T07:51:51.427Z,57.82
2023-01-25T07:54:18.365Z,57.64
2023-01-25T07:56:45.442Z,57.57
2023-01-25T07:59:12.590Z,57.53
2023-01-25T08:01:40.181Z,57.63
2023-01-25T08:04:07.949Z,57.60
2023-01-25T08:06:39.560Z,57.62
2023-01-25T08:09:13.732Z,57.54
2023-01-25T08:11:42.632Z,57.86
2023-01-25T08:14:09.907Z,57.81
2023-01-25T08:16:36.823Z,57.73
2023-01-25T08:19:04.675Z,57.68
2023-01-25T08:21:34.299Z,57.86
2023-01-25T08:24:05.135Z,57.75
2023-01-25T08:26:32.482Z,57.92
2023-01-25T08:28:59.583Z,58.01
2023-01-25T08:31:31.829Z,57.54
2023-01-25T08:33:59.310Z,57.98
2023-01-25T08:36:28.431Z,57.85
2023-01-25T08:39:01.135Z,57.88
2023-01-25T08:41:30.232Z,57.78
2023-01-25T08:43:58.233Z,57.60
2023-01-25T08:46:30.169Z,57.73
2023-01-25T08:48:59.221Z,57.85
2023-01-25T08:51:27.108Z,57.73
2023-01-25T08:53:54.251Z,57.73
2023-01-25T08:56:21.784Z,57.92
2023-01-25T08:58:50.275Z,57.78
2023-01-25T09:01:18.491Z,57.84
2023-01-25T09:03:47.584Z,57.94
2023-01-25T09:06:15.346Z,58.02
2023-01-25T09:08:42.891Z,58.02
2023-01-25T09:11:15.374Z,57.75
2023-01-25T09:13:45.398Z,58.04
2023-01-25T09:16:14.980Z,58.08
2023-01-25T09:18:43.874Z,58.02
2023-01-25T09:21:17.548Z,57.93
2023-01-25T09:23:51.315Z,57.86
2023-01-25T09:26:25.449Z,57.91
2023-01-25T09:28:54.972Z,57.77
2023-01-25T09:31:24.018Z,58.14
2023-01-25T09:33:53.150Z,57.99
2023-01-25T09:36:21.183Z,58.21
2023-01-25T09:38:48.857Z,57.84
2023-01-25T09:41:40.066Z,58.30
2023-01-25T09:44:39.367Z,58.09
2023-01-25T09:47:30.659Z,58.09
2023-01-25T09:50:06.799Z,58.23
2023-01-25T09:52:54.285Z,58.30
2023-01-25T09:55:24.764Z,58.19
2023-01-25T09:57:54.332Z,58.24
2023-01-25T10:00:31.594Z,58.18
2023-01-25T10:03:23.061Z,58.11
2023-01-25T10:05:54.317Z,58.12
2023-01-25T10:08:48.370Z,58.02
2023-01-25T10:11:42.305Z,57.99
2023-01-25T10:14:18.528Z,58.30
2023-01-25T10:16:50.263Z,58.28
2023-01-25T10:19:38.079Z,58.13
2023-01-25T10:22:14.804Z,58.09
2023-01-25T10:25:00.174Z,58.22
2023-01-25T10:27:39.465Z,58.37
2023-01-25T10:30:23.802Z,58.09
2023-01-25T10:32:56.101Z,58.04
2023-01-25T10:35:35.433Z,58.26
2023-01-25T10:38:07.522Z,58.17
2023-01-25T10:40:48.959Z,58.09
2023-01-25T10:43:21.869Z,58.31
2023-01-25T10:45:50.448Z,58.22
2023-01-25T10:48:22.629Z,57.98
2023-01-25T10:50:53.326Z,58.15
2023-01-25T10:53:44.481Z,58.15
2023-01-25T10:56:11.406Z,58.10
2023-01-25T10:58:47.087Z,58.09
2023-01-25T11:01:36.262Z,57.92
2023-01-25T11:04:04.097Z,58.09
2023-01-25T11:06:39.989Z,58.21
2023-01-25T11:09:22.093Z,58.05
2023-01-25T11:11:57.201Z,57.97
2023-01-25T11:14:30.240Z,58.14
2023-01-25T11:17:00.703Z,58.01
2023-01-25T11:19:42.672Z,58.00
2023-01-25T11:22:24.842Z,57.85
2023-01-25T11:24:51.970Z,58.15
2023-01-25T11:27:23.885Z,57.94
2023-01-25T11:30:06.772Z,58.08
2023-01-25T11:32:33.974Z,57.79
2023-01-25T11:35:01.256Z,57.80
2023-01-25T11:37:30.991Z,57.77
2023-01-25T11:40:16.759Z,57.81
2023-01-25T11:43:26.330Z,57.93
2023-01-25T11:46:03.126Z,57.87
2023-01-25T11:48:44.012Z,57.68
2023-01-25T11:51:20.914Z,57.74
2023-01-25T11:54:25.477Z,57.72
2023-01-25T11:57:06.855Z,57.68
2023-01-25T12:00:08.055Z,57.60
2023-01-25T12:02:53.871Z,57.52
2023-01-25T12:05:23.722Z,57.54
2023-01-25T12:08:13.446Z,57.50
2023-01-25T12:10:49.388Z,57.48
2023-01-25T12:13:54.996Z,57.47
2023-01-25T12:16:30.785Z,57.50
2023-01-25T12:19:13.434Z,57.38
2023-01-25T12:22:12.940Z,57.33
2023-01-25T12:24:52.095Z,57.20
2023-01-25T12:27:30.009Z,57.44
2023-01-25T12:30:04.563Z,57.42
2023-01-25T12:32:50.900Z,57.19
2023-01-25T12:35:35.447Z,57.21
2023-01-25T12:38:08.886Z,57.00
2023-01-25T12:41:00.192Z,57.04
2023-01-25T12:43:38.526Z,57.10
2023-01-25T12:46:16.274Z,56.97
2023-01-25T12:48:49.713Z,56.85
2023-01-25T12:51:19.546Z,56.93
2023-01-25T12:53:48.041Z,56.92
2023-01-25T12:56:45.993Z,56.71
2023-01-25T12:59:30.960Z,56.71
2023-01-25T13:02:26.715Z,56.79
2023-01-25T13:05:13.709Z,56.75
2023-01-25T13:07:54.625Z,54.96
2023-01-25T13:10:30.910Z,51.77
2023-01-25T13:13:04.356Z,50.71
2023-01-25T13:15:45.735Z,49.81
2023-01-25T13:18:24.761Z,49.38
2023-01-25T13:20:54.848Z,48.93
2023-01-25T13:23:47.679Z,48.86
2023-01-25T13:26:28.677Z,47.70
2023-01-25T13:28:58.331Z,47.30
2023-01-25T13:31:51.861Z,47.41
2023-01-25T13:34:40.548Z,47.35
2023-01-25T13:37:21.109Z,47.31
2023-01-25T13:39:55.700Z,48.84
2023-01-25T13:42:28.552Z,49.62
2023-01-25T13:45:19.181Z,50.44
2023-01-25T13:48:14.022Z,51.44
2023-01-25T13:50:49.205Z,51.50
2023-01-25T13:53:17.693Z,52.07
2023-01-25T13:55:47.597Z,52.51
2023-01-25T13:58:46.353Z,52.70
2023-01-25T14:01:19.388Z,52.81
2023-01-25T14:03:49.897Z,53.04
2023-01-25T14:06:18.840Z,53.23
2023-01-25T14:08:47.832Z,53.69
2023-01-25T14:11:26.997Z,53.75
2023-01-25T14:13:59.119Z,54.10
2023-01-25T14:16:27.883Z,54.16
2023-01-25T14:18:55.070Z,53.98
2023-01-25T14:21:23.254Z,54.27
2023-01-25T14:23:50.391Z,51.48
2023-01-25T14:26:22.181Z,48.90
2023-01-25T14:29:01.133Z,48.34
2023-01-25T14:31:34.697Z,47.45
2023-01-25T14:34:04.514Z,46.86
2023-01-25T14:36:35.038Z,46.71
2023-01-25T14:39:04.703Z,46.41
2023-01-25T14:41:48.783Z,46.62
2023-01-25T14:44:26.762Z,46.48
2023-01-25T14:47:28.952Z,46.39
2023-01-25T14:49:56.012Z,46.12
2023-01-25T14:52:27.925Z,46.21
2023-01-25T14:54:56.610Z,46.12
2023-01-25T14:57:41.759Z,46.32
2023-01-25T15:00:21.710Z,47.13
2023-01-25T15:02:55.951Z,47.10
2023-01-25T15:05:37.718Z,46.66
2023-01-25T15:08:07.628Z,47.39
2023-01-25T15:10:36.917Z,46.19
2023-01-25T15:13:14.834Z,46.19
2023-01-25T15:15:59.085Z,45.96
2023-01-25T15:18:53.905Z,44.91
2023-01-25T15:21:29.707Z,44.62
2023-01-25T15:23:59.309Z,44.78
2023-01-25T15:26:32.039Z,44.53
2023-01-25T15:29:14.422Z,44.64
2023-01-25T15:31:42.613Z,45.18
2023-01-25T15:34:35.928Z,44.99
2023-01-25T15:37:03.969Z,45.05
2023-01-25T15:39:34.332Z,45.14
2023-01-25T15:42:01.703Z,45.02
2023-01-25T15:44:28.940Z,45.14
2023-01-25T15:46:56.211Z,45.09
2023-01-25T15:49:28.246Z,45.69
2023-01-25T15:51:56.070Z,45.28
2023-01-25T15:54:24.745Z,45.20
2023-01-25T15:56:55.757Z,45.38
2023-01-25T15:59:22.884Z,44.94
2023-01-25T16:01:50.267Z,45.35
2023-01-25T16:04:17.364Z,44.75
2023-01-25T16:06:47.631Z,44.82
2023-01-25T16:09:23.413Z,45.21
2023-01-25T16:11:52.941Z,47.06
2023-01-25T16:14:21.400Z,46.90
2023-01-25T16:16:51.328Z,47.60
2023-01-25T16:19:22.379Z,48.19
2023-01-25T16:21:50.022Z,48.64
2023-01-25T16:24:18.091Z,49.32
2023-01-25T16:26:56.776Z,49.47
2023-01-25T16:29:23.795Z,49.80
2023-01-25T16:31:51.989Z,49.94
2023-01-25T16:34:20.739Z,50.38
2023-01-25T16:36:51.227Z,50.42
2023-01-25T16:39:22.652Z,50.47
2023-01-25T16:41:50.342Z,50.85
2023-01-25T16:44:17.974Z,51.16
2023-01-25T16:46:45.505Z,51.17
2023-01-25T16:49:17.653Z,51.37
2023-01-25T16:51:50.257Z,51.61
2023-01-25T16:54:20.235Z,51.85
2023-01-25T16:56:48.843Z,51.89
2023-01-25T16:59:17.987Z,51.95
2023-01-25T17:01:45.504Z,51.94
2023-01-25T17:04:13.724Z,52.42
2023-01-25T17:06:43.818Z,52.53
2023-01-25T17:09:22.832Z,50.83
2023-01-25T17:11:51.398Z,51.61
2023-01-25T17:14:19.698Z,52.30
2023-01-25T17:16:48.581Z,52.69
2023-01-25T17:19:17.315Z,50.97
2023-01-25T17:21:45.373Z,49.36
2023-01-25T17:24:15.091Z,48.73
2023-01-25T17:26:42.690Z,48.13
2023-01-25T17:29:10.767Z,49.94
2023-01-25T17:31:38.683Z,50.79
2023-01-25T17:34:08.474Z,51.41
2023-01-25T17:36:35.598Z,51.78
2023-01-25T17:39:05.347Z,51.80
2023-01-25T17:41:33.196Z,52.46
2023-01-25T17:44:00.504Z,52.50
2023-01-25T17:46:32.585Z,50.65
2023-01-25T17:49:01.468Z,51.67
2023-01-25T17:51:28.592Z,52.35
2023-01-25T17:53:55.619Z,52.25
2023-01-25T17:56:22.582Z,52.27
2023-01-25T17:58:50.432Z,52.42
2023-01-25T18:01:22.875Z,52.57
2023-01-25T18:03:51.259Z,52.57
2023-01-25T18:06:21.097Z,53.10
2023-01-25T18:08:50.462Z,52.99
2023-01-25T18:11:25.235Z,53.02
2023-01-25T18:13:55.738Z,52.77
2023-01-25T18:16:24.404Z,53.22
2023-01-25T18:18:54.881Z,53.46
2023-01-25T18:21:26.936Z,53.37
2023-01-25T18:23:57.171Z,53.42
2023-01-25T18:26:30.024Z,53.72
2023-01-25T18:29:06.636Z,53.37
2023-01-25T18:31:33.873Z,53.34
2023-01-25T18:34:01.123Z,53.06
2023-01-25T18:36:28.170Z,53.17
2023-01-25T18:38:55.391Z,53.23
2023-01-25T18:41:23.415Z,53.17
2023-01-25T18:43:51.250Z,53.06
2023-01-25T18:46:18.546Z,52.74
2023-01-25T18:48:47.440Z,52.90
2023-01-25T18:51:20.146Z,52.88
2023-01-25T18:53:51.316Z,52.87
2023-01-25T18:56:20.395Z,53.11
2023-01-25T18:58:48.123Z,52.96
2023-01-25T19:01:21.020Z,52.77
2023-01-25T19:03:52.547Z,52.83
2023-01-25T19:06:21.124Z,52.88
2023-01-25T19:08:53.543Z,52.83
2023-01-25T19:11:24.094Z,52.68
2023-01-25T19:13:54.197Z,52.48
2023-01-25T19:16:26.943Z,52.55
2023-01-25T19:18:58.197Z,52.46
2023-01-25T19:21:27.850Z,52.15
2023-01-25T19:23:56.327Z,52.24
2023-01-25T19:26:25.551Z,52.12
2023-01-25T19:28:53.239Z,51.99
2023-01-25T19:31:25.313Z,52.01
2023-01-25T19:33:56.962Z,51.80
2023-01-25T19:36:25.071Z,51.59
2023-01-25T19:38:52.064Z,51.34
2023-01-25T19:41:21.475Z,51.46
2023-01-25T19:43:57.205Z,51.69
2023-01-25T19:46:27.261Z,49.23
2023-01-25T19:48:55.070Z,49.16
2023-01-25T19:51:22.042Z,50.14
2023-01-25T19:54:00.647Z,50.55
2023-01-25T19:56:33.619Z,50.84
2023-01-25T19:59:03.808Z,50.94
2023-01-25T20:01:31.099Z,51.01
2023-01-25T20:04:21.020Z,51.11
2023-01-25T20:06:49.354Z,51.47
2023-01-25T20:09:20.515Z,51.50
2023-01-25T20:11:49.355Z,51.56
2023-01-25T20:14:20.420Z,51.75
2023-01-25T20:16:53.420Z,51.70
2023-01-25T20:19:21.023Z,51.92
2023-01-25T20:21:52.549Z,52.02
2023-01-25T20:24:20.355Z,52.14
2023-01-25T20:26:47.838Z,51.91
2023-01-25T20:29:15.044Z,51.54
2023-01-25T20:31:45.182Z,51.50
2023-01-25T20:34:21.108Z,51.04
2023-01-25T20:39:23.544Z,51.50
2023-01-25T20:41:53.828Z,51.64
2023-01-25T20:44:21.692Z,51.55
2023-01-25T20:46:52.371Z,51.73
2023-01-25T20:49:19.758Z,51.57
2023-01-25T20:51:47.434Z,51.73
2023-01-25T20:54:15.726Z,51.85
2023-01-25T20:56:43.430Z,51.42
2023-01-25T20:59:10.897Z,51.44
2023-01-25T21:01:38.508Z,51.72
2023-01-25T21:04:07.829Z,51.31
2023-01-25T21:06:35.653Z,51.16
2023-01-25T21:09:03.277Z,51.05
2023-01-25T21:11:30.503Z,51.19
2023-01-25T21:13:58.808Z,51.50
2023-01-25T21:16:26.592Z,51.57
2023-01-25T21:18:58.012Z,52.17
2023-01-25T21:21:30.566Z,52.10
2023-01-25T21:24:00.510Z,52.13
2023-01-25T21:26:30.342Z,52.13
2023-01-25T21:29:00.070Z,52.20
2023-01-25T21:31:29.787Z,52.79
2023-01-25T21:33:57.209Z,52.95
2023-01-25T21:36:25.010Z,52.95
2023-01-25T21:38:54.400Z,53.14
2023-01-25T21:41:25.183Z,53.08
2023-01-25T21:44:12.719Z,52.60
2023-01-25T21:46:40.221Z,52.83
2023-01-25T21:49:28.630Z,52.48
2023-01-25T21:52:01.578Z,52.47
2023-01-25T21:54:34.138Z,52.46
2023-01-25T21:57:03.822Z,52.43
2023-01-25T21:59:31.047Z,52.13
2023-01-25T22:01:58.190Z,51.91
2023-01-25T22:04:26.149Z,51.64
2023-01-25T22:06:54.890Z,52.06
2023-01-25T22:09:27.496Z,51.78
2023-01-25T22:11:54.916Z,51.53
2023-01-25T22:14:25.135Z,50.54
2023-01-25T22:16:54.178Z,50.63
2023-01-25T22:19:21.544Z,50.85
2023-01-25T22:21:48.735Z,50.51
2023-01-25T22:24:16.568Z,50.75
2023-01-25T22:27:06.218Z,49.96
2023-01-25T22:29:34.775Z,49.80
2023-01-25T22:32:03.220Z,49.89
2023-01-25T22:34:30.146Z,49.94
2023-01-25T22:36:57.337Z,49.83
2023-01-25T22:39:24.616Z,50.05
2023-01-25T22:41:51.721Z,49.91
2023-01-25T22:44:18.909Z,50.22
2023-01-25T22:46:46.889Z,50.22
2023-01-25T22:49:13.895Z,50.31
2023-01-25T22:51:44.112Z,50.31
2023-01-25T22:54:11.154Z,50.27
2023-01-25T22:56:38.051Z,50.37
2023-01-25T22:59:07.053Z,50.55
2023-01-25T23:01:35.721Z,50.70
2023-01-25T23:04:04.261Z,50.59
2023-01-25T23:06:36.137Z,50.87
2023-01-25T23:09:06.393Z,50.87
2023-01-25T23:11:37.793Z,50.77
2023-01-25T23:14:25.272Z,51.07
2023-01-25T23:16:52.920Z,51.19
2023-01-25T23:19:19.850Z,51.10
2023-01-25T23:21:46.799Z,51.23
2023-01-25T23:24:13.821Z,51.42
2023-01-25T23:26:46.766Z,51.24
2023-01-25T23:29:13.884Z,51.14
2023-01-25T23:31:40.948Z,51.57
2023-01-25T23:34:08.000Z,51.62
2023-01-25T23:36:38.947Z,51.59
2023-01-25T23:39:06.281Z,51.59
2023-01-25T23:41:33.969Z,51.84
2023-01-25T23:44:01.098Z,51.94
2023-01-25T23:46:28.674Z,51.84
2023-01-25T23:48:55.641Z,52.05
2023-01-25T23:51:22.786Z,52.14
2023-01-25T23:53:50.008Z,51.99
2023-01-25T23:56:19.348Z,52.19
2023-01-25T23:58:46.876Z,52.13
